EW5713 Weather Reports


Display with metric or nautical units.
time (UTC)temp
F
wind
direction
speed
MPH
gust
MPH
rain 1hr
in
rain 24hr
in
rain mn
in
humidity
%
barometer
mb
20200814200802 78 229 0.0 1.0 0.00 0.12 0.00 79 1015.8
20200814200302 78 231 1.0 2.0 0.00 0.12 0.00 77 1015.8
20200814195803 78 234 0.0 1.0 0.00 0.12 0.00 80 1015.9
20200814195303 78 234 1.0 6.0 0.00 0.12 0.00 78 1015.9
20200814194803 79 260 2.0 6.0 0.00 0.12 0.00 78 1015.9
20200814194302 79 141 1.0 3.0 0.00 0.12 0.00 78 1016.0
20200814193803 79 238 0.0 3.0 0.00 0.12 0.00 77 1015.9
20200814193303 79 295 2.0 6.0 0.00 0.12 0.00 78 1016.1
20200814192803 79 269 1.0 5.0 0.00 0.12 0.00 77 1016.1
20200814192303 79 269 3.0 7.0 0.00 0.12 0.00 75 1016.1
20200814191803 80 244 1.0 5.0 0.00 0.12 0.00 75 1016.2
20200814191303 80 236 2.0 8.0 0.00 0.12 0.00 74 1016.3
20200814190803 80 239 2.0 8.0 0.00 0.12 0.00 72 1016.2
20200814190304 80 212 1.0 8.0 0.00 0.12 0.00 73 1016.2
20200814185802 80 148 0.0 3.0 0.00 0.12 0.00 79 1016.2
20200814185304 80 250 0.0 7.0 0.00 0.12 0.00 77 1016.2
20200814184802 80 234 1.0 7.0 0.00 0.12 0.00 78 1016.3
20200814184303 79 200 2.0 6.0 0.00 0.12 0.00 77 1016.3
20200814183803 79 245 1.0 7.0 0.00 0.12 0.00 76 1016.4
20200814183303 79 200 0.0 2.0 0.00 0.12 0.00 75 1016.4
20200814182803 79 180 0.0 2.0 0.00 0.12 0.00 74 1016.5
20200814182303 79 249 2.0 5.0 0.00 0.12 0.00 74 1016.6
20200814181803 79 223 1.0 5.0 0.00 0.12 0.00 74 1016.6
20200814181303 78 355 0.0 1.0 0.00 0.12 0.00 72 1016.7
20200814180803 78 257 2.0 3.0 0.00 0.12 0.00 74 1016.7
20200814180303 78 239 0.0 3.0 0.00 0.12 0.00 76 1016.8
20200814175803 78 248 3.0 7.0 0.00 0.12 0.00 76 1016.9
20200814175303 78 248 0.0 2.0 0.00 0.12 0.00 78 1016.9
20200814174803 78 236 1.0 3.0 0.00 0.12 0.00 76 1017.0
20200814174303 78 216 1.0 3.0 0.00 0.12 0.00 77 1017.0
20200814173803 78 121 0.0 0.0 0.00 0.12 0.00 79 1017.2
20200814173303 78 121 0.0 0.0 0.00 0.12 0.00 79 1017.1
20200814172803 77 0 0.0 3.0 0.00 0.12 0.00 77 1017.2
20200814172303 77 244 1.0 7.0 0.00 0.12 0.00 75 1017.3
20200814171803 77 134 0.0 3.0 0.00 0.12 0.00 76 1017.4
20200814171303 77 143 1.0 3.0 0.00 0.12 0.00 78 1017.4
20200814170803 77 157 1.0 3.0 0.00 0.12 0.00 78 1017.4
20200814170303 77 262 1.0 3.0 0.00 0.12 0.00 80 1017.6
20200814165803 77 145 1.0 3.0 0.00 0.12 0.00 79 1017.6
20200814165303 76 299 1.0 8.0 0.00 0.12 0.00 81 1017.7
20200814164803 76 227 1.0 3.0 0.00 0.12 0.00 82 1017.7
20200814164303 75 135 0.0 3.0 0.00 0.12 0.00 82 1017.8
20200814163803 75 222 1.0 3.0 0.00 0.12 0.00 81 1017.9
20200814163304 74 213 1.0 3.0 0.00 0.12 0.00 85 1018.0
20200814162803 74 273 1.0 3.0 0.00 0.12 0.00 87 1018.0
20200814162303 74 240 1.0 3.0 0.00 0.12 0.00 88 1018.0
20200814161804 74 247 0.0 0.0 0.00 0.12 0.00 88 1018.1
20200814161303 74 245 0.0 1.0 0.00 0.12 0.00 89 1018.2
20200814160803 74 244 1.0 3.0 0.00 0.12 0.00 90 1018.2
20200814160304 73 241 0.0 0.0 0.00 0.12 0.00 90 1018.4
20200814155803 73 241 0.0 1.0 0.00 0.12 0.00 90 1018.4
20200814155304 73 241 0.0 2.0 0.00 0.12 0.00 90 1018.5
20200814154804 73 241 0.0 2.0 0.00 0.12 0.00 90 1018.5
20200814154303 72 241 0.0 1.0 0.00 0.12 0.00 91 1018.5
20200814153803 72 241 1.0 3.0 0.00 0.12 0.00 91 1018.5
20200814153303 72 240 1.0 3.0 0.00 0.12 0.00 91 1018.5
20200814152803 72 240 0.0 2.0 0.00 0.12 0.00 91 1018.6
20200814152304 72 229 1.0 3.0 0.00 0.12 0.00 91 1018.6
20200814151804 72 240 1.0 3.0 0.00 0.12 0.00 91 1018.7
20200814151303 71 248 0.0 1.0 0.00 0.12 0.00 92 1018.7
20200814150804 71 253 0.0 1.0 0.00 0.12 0.00 92 1018.7
20200814150304 71 253 0.0 1.0 0.00 0.12 0.00 92 1018.7
20200814145803 71 245 0.0 2.0 0.00 0.12 0.00 92 1018.7
20200814145303 70 240 0.0 3.0 0.00 0.12 0.00 92 1018.7
20200814144804 70 237 1.0 6.0 0.00 0.12 0.00 92 1018.6
20200814144303 70 230 0.0 2.0 0.00 0.12 0.00 93 1018.6
20200814143804 70 229 0.0 1.0 0.00 0.12 0.00 93 1018.5
20200814143303 69 229 1.0 2.0 0.00 0.12 0.00 93 1018.5
20200814142804 69 216 0.0 0.0 0.00 0.12 0.00 93 1018.4
20200814142303 69 234 0.0 1.0 0.00 0.12 0.00 93 1018.3
20200814141803 69 237 1.0 2.0 0.00 0.12 0.00 93 1018.3
20200814141303 69 237 0.0 1.0 0.00 0.12 0.00 93 1018.3
20200814140803 68 237 1.0 2.0 0.00 0.12 0.00 93 1018.3
20200814140304 68 221 0.0 2.0 0.00 0.12 0.00 93 1018.2
20200814135803 68 258 0.0 3.0 0.00 0.12 0.00 93 1018.3
20200814135303 68 51 0.0 1.0 0.00 0.12 0.00 93 1018.4
20200814134803 68 51 0.0 1.0 0.00 0.12 0.00 93 1018.4
20200814134303 68 51 0.0 0.0 0.00 0.12 0.00 93 1018.3
20200814133804 68 51 0.0 1.0 0.00 0.12 0.00 93 1018.3
20200814133303 68 53 0.0 0.0 0.00 0.12 0.00 93 1018.3
20200814132805 68 53 0.0 1.0 0.00 0.12 0.00 93 1018.3
20200814132303 68 46 0.0 0.0 0.00 0.12 0.00 93 1018.3
20200814131803 68 46 0.0 1.0 0.00 0.12 0.00 93 1018.4
20200814131303 68 46 0.0 1.0 0.00 0.12 0.00 93 1018.3
20200814130803 68 53 0.0 0.0 0.00 0.12 0.00 93 1018.1
20200814130304 67 53 0.0 0.0 0.00 0.12 0.00 93 1018.1
20200814125804 67 53 0.0 0.0 0.00 0.12 0.00 93 1018.2
20200814125304 67 53 0.0 0.0 0.00 0.12 0.00 93 1018.1
20200814124803 67 55 0.0 0.0 0.00 0.12 0.00 93 1018.1
20200814124304 67 55 0.0 0.0 0.00 0.12 0.00 93 1018.1
20200814123804 67 66 0.0 0.0 0.00 0.12 0.00 93 1018.1
20200814123303 67 65 0.0 0.0 0.00 0.12 0.00 93 1018.1
20200814122803 67 65 0.0 0.0 0.00 0.12 0.00 93 1018.0
20200814122304 67 67 0.0 0.0 0.00 0.12 0.00 93 1018.0
20200814121804 67 67 0.0 0.0 0.00 0.12 0.00 93 1017.8
20200814121303 67 67 0.0 0.0 0.00 0.12 0.00 93 1017.7
20200814120804 67 65 0.0 0.0 0.00 0.12 0.00 93 1017.7
20200814120303 67 67 0.0 0.0 0.00 0.12 0.00 93 1017.7
20200814115804 67 67 0.0 0.0 0.00 0.12 0.00 93 1017.7
20200814115304 67 67 0.0 0.0 0.00 0.12 0.00 93 1017.7
20200814114803 67 67 0.0 0.0 0.00 0.12 0.00 93 1017.7
20200814114303 67 67 0.0 0.0 0.00 0.12 0.00 93 1017.6
20200814113804 67 67 0.0 0.0 0.00 0.12 0.00 93 1017.5
20200814113303 67 67 0.0 0.0 0.00 0.12 0.00 93 1017.4
20200814112804 67 69 0.0 0.0 0.00 0.12 0.00 93 1017.4
20200814112307 67 69 0.0 0.0 0.00 0.12 0.00 93 1017.4
20200814111803 67 69 0.0 0.0 0.00 0.12 0.00 93 1017.4
20200814111304 67 69 0.0 0.0 0.00 0.12 0.00 93 1017.4
20200814110304 67 69 0.0 0.0 0.00 0.12 0.00 93 1017.3
20200814105804 67 69 0.0 0.0 0.00 0.12 0.00 93 1017.3
20200814105306 67 69 0.0 0.0 0.00 0.12 0.00 93 1017.3
20200814104804 67 69 0.0 0.0 0.00 0.12 0.00 93 1017.2
20200814104303 67 69 0.0 0.0 0.00 0.12 0.00 93 1017.2
20200814103804 67 69 0.0 0.0 0.00 0.12 0.00 93 1017.3
20200814103304 67 69 0.0 0.0 0.00 0.12 0.00 93 1017.3
20200814102804 67 69 0.0 0.0 0.00 0.12 0.00 93 1017.3
20200814102306 67 69 0.0 0.0 0.00 0.12 0.00 93 1017.3
20200814101804 67 69 0.0 0.0 0.00 0.12 0.00 93 1017.4
20200814101303 67 69 0.0 0.0 0.00 0.12 0.00 93 1017.4
20200814100804 67 69 0.0 0.0 0.00 0.12 0.00 93 1017.4
20200814100303 67 69 0.0 0.0 0.00 0.12 0.00 93 1017.4
20200814095803 67 69 0.0 0.0 0.00 0.12 0.00 93 1017.3
20200814095306 67 69 0.0 0.0 0.00 0.12 0.00 93 1017.2
20200814094804 67 69 0.0 0.0 0.00 0.12 0.00 93 1017.2
20200814094303 67 69 0.0 0.0 0.00 0.12 0.00 93 1017.4
20200814093804 67 69 0.0 0.0 0.00 0.12 0.00 93 1017.3
20200814093303 67 69 0.0 0.0 0.00 0.12 0.00 93 1017.4
20200814092804 67 69 0.0 0.0 0.00 0.12 0.00 93 1017.3
20200814092306 67 69 0.0 0.0 0.00 0.12 0.00 93 1017.4
20200814091304 67 69 0.0 0.0 0.00 0.12 0.00 93 1017.4
20200814090803 67 69 0.0 0.0 0.00 0.12 0.00 93 1017.4
20200814090304 67 69 0.0 0.0 0.00 0.12 0.00 93 1017.5
20200814085804 67 69 0.0 0.0 0.00 0.12 0.00 93 1017.5
20200814085306 67 69 0.0 1.0 0.00 0.12 0.00 93 1017.5
20200814084804 67 69 0.0 0.0 0.00 0.12 0.00 93 1017.5
20200814084304 67 69 0.0 0.0 0.00 0.12 0.00 93 1017.5
20200814083803 67 69 0.0 0.0 0.00 0.12 0.00 93 1017.6
20200814083303 67 69 0.0 0.0 0.00 0.12 0.00 93 1017.6
20200814082804 67 69 0.0 0.0 0.00 0.12 0.00 93 1017.6
20200814082306 67 69 0.0 0.0 0.00 0.12 0.00 93 1017.5
20200814081804 67 69 0.0 0.0 0.00 0.12 0.00 93 1017.5
20200814081303 67 69 0.0 0.0 0.00 0.12 0.00 93 1017.5
20200814080804 67 69 0.0 0.0 0.00 0.12 0.00 93 1017.7
20200814080304 67 69 0.0 0.0 0.00 0.12 0.00 93 1017.7
20200814075804 68 69 0.0 0.0 0.00 0.12 0.00 93 1017.7
20200814075306 68 69 0.0 0.0 0.00 0.12 0.00 93 1017.9
20200814074804 68 69 0.0 0.0 0.00 0.12 0.00 93 1017.9
20200814074304 68 69 0.0 2.0 0.00 0.12 0.00 93 1017.9
20200814073804 67 270 0.0 0.0 0.00 0.12 0.00 93 1018.0
20200814073304 68 264 0.0 0.0 0.00 0.12 0.00 93 1017.9
20200814072804 68 264 0.0 1.0 0.00 0.12 0.00 93 1018.0
20200814072305 67 264 0.0 1.0 0.00 0.12 0.00 93 1018.1
20200814071804 67 264 0.0 1.0 0.00 0.12 0.00 93 1018.2
20200814071305 68 264 0.0 0.0 0.00 0.12 0.00 93 1018.3
20200814070804 68 264 0.0 0.0 0.00 0.12 0.00 93 1018.3
20200814070304 68 264 0.0 0.0 0.00 0.12 0.00 93 1018.3
20200814065804 68 264 0.0 0.0 0.00 0.12 0.00 93 1018.3
20200814065304 68 264 0.0 0.0 0.00 0.12 0.00 93 1018.1
20200814064804 68 264 0.0 0.0 0.00 0.12 0.00 93 1018.1
20200814064303 68 264 0.0 2.0 0.00 0.12 0.00 93 1018.1
20200814063803 68 265 0.0 1.0 0.00 0.12 0.00 93 1018.1
20200814063304 68 265 0.0 0.0 0.00 0.12 0.00 93 1018.2
20200814062803 68 265 0.0 0.0 0.00 0.12 0.00 93 1018.2
20200814062304 68 265 0.0 1.0 0.00 0.12 0.00 93 1018.1
20200814061804 68 252 0.0 2.0 0.00 0.12 0.00 93 1018.3
20200814061303 68 252 0.0 0.0 0.00 0.12 0.00 93 1018.4
20200814060803 68 252 0.0 0.0 0.00 0.12 0.00 93 1018.5
20200814060304 68 252 0.0 1.0 0.00 0.12 0.00 93 1018.5
20200814055804 68 252 0.0 1.0 0.00 0.12 0.00 93 1018.5
20200814055304 68 252 0.0 2.0 0.00 0.12 0.00 93 1018.5
20200814054804 68 209 0.0 1.0 0.00 0.12 0.00 93 1018.7
20200814054304 68 253 0.0 1.0 0.00 0.12 0.00 93 1018.7
20200814053804 68 248 0.0 3.0 0.00 0.12 0.00 93 1018.4
20200814053304 68 241 0.0 0.0 0.00 0.12 0.00 93 1018.4
20200814052804 68 241 0.0 0.0 0.00 0.12 0.00 93 1018.5
20200814052304 68 242 0.0 0.0 0.00 0.12 0.00 93 1018.6
20200814051802 68 242 0.0 0.0 0.00 0.12 0.00 93 1018.5
20200814051303 68 242 0.0 0.0 0.00 0.12 0.00 93 1018.5
20200814050802 68 242 0.0 0.0 0.00 0.12 0.00 93 1018.5
20200814050303 68 242 0.0 0.0 0.00 0.12 0.00 93 1018.7
20200814045802 68 242 0.0 0.0 0.00 0.12 0.00 93 1018.7
20200814045303 68 242 0.0 0.0 0.00 0.12 0.00 93 1018.7
20200814044802 68 242 0.0 0.0 0.00 0.12 0.00 93 1018.7
20200814044302 68 242 0.0 1.0 0.00 0.12 0.00 92 1018.6
20200814043803 68 242 0.0 2.0 0.00 0.12 0.00 92 1018.6
20200814043302 68 218 0.0 1.0 0.00 0.12 0.00 92 1018.7
20200814042803 68 218 0.0 1.0 0.00 0.12 0.00 92 1018.6
20200814042302 68 193 0.0 0.0 0.00 0.12 0.00 92 1018.7
20200814041802 69 193 0.0 0.0 0.00 0.12 0.00 92 1018.8
20200814041302 69 193 0.0 0.0 0.00 0.12 0.00 93 1018.9
20200814040812 69 193 0.0 0.0 0.00 0.12 0.00 93 1018.8
20200814040303 69 193 0.0 1.0 0.00 0.12 0.00 92 1018.8
20200814035803 69 193 0.0 0.0 0.00 0.12 0.12 92 1018.9
20200814035303 69 193 0.0 0.0 0.00 0.12 0.12 92 1018.8
20200814034802 69 193 0.0 0.0 0.00 0.12 0.12 92 1018.7
20200814034303 69 193 0.0 0.0 0.00 0.12 0.12 92 1018.8
20200814033802 69 193 0.0 1.0 0.00 0.12 0.12 92 1018.7
20200814033302 69 193 0.0 2.0 0.00 0.12 0.12 92 1018.8
20200814032802 69 192 0.0 0.0 0.02 0.12 0.12 92 1018.9
20200814032302 69 192 0.0 0.0 0.04 0.12 0.12 92 1018.9
20200814031803 69 192 0.0 0.0 0.04 0.12 0.12 92 1019.0
20200814031302 69 192 0.0 1.0 0.04 0.12 0.12 92 1019.1
20200814030803 69 192 0.0 2.0 0.06 0.12 0.12 92 1019.1
20200814030303 69 192 0.0 0.0 0.06 0.12 0.12 92 1019.3
20200814025803 69 192 0.0 0.0 0.08 0.12 0.12 92 1019.3
20200814025303 69 192 0.0 0.0 0.10 0.12 0.12 92 1019.2
20200814024803 69 192 0.0 0.0 0.12 0.12 0.12 92 1019.3
20200814024302 69 192 0.0 0.0 0.12 0.12 0.12 92 1019.4
20200814023803 69 192 0.0 0.0 0.12 0.12 0.12 92 1019.4
20200814023303 70 192 0.0 1.0 0.12 0.12 0.12 92 1019.5
20200814022803 70 192 0.0 1.0 0.10 0.10 0.10 92 1019.5
20200814022302 70 192 0.0 0.0 0.08 0.08 0.08 92 1019.5
20200814021803 70 192 0.0 0.0 0.08 0.08 0.08 92 1019.4
20200814021302 70 192 0.0 0.0 0.08 0.08 0.08 91 1019.3
20200814020803 70 192 0.0 1.0 0.06 0.06 0.06 91 1019.3
20200814020303 70 192 0.0 1.0 0.06 0.06 0.06 91 1019.2
20200814015802 70 192 0.0 1.0 0.04 0.04 0.04 91 1019.1
20200814015303 70 128 0.0 1.0 0.02 0.02 0.02 91 1019.0
20200814014802 71 128 0.0 3.0 0.00 0.00 0.00 91 1018.9
20200814014303 71 130 0.0 0.0 0.00 0.00 0.00 91 1018.9
20200814013803 71 130 0.0 1.0 0.00 0.00 0.00 91 1018.6
20200814013303 71 127 1.0 3.0 0.00 0.00 0.00 90 1018.5
20200814012803 71 123 0.0 0.0 0.00 0.00 0.00 90 1018.4
20200814012303 71 123 0.0 1.0 0.00 0.00 0.00 90 1018.3
20200814011802 71 129 1.0 3.0 0.00 0.00 0.00 90 1018.4
20200814011303 72 132 0.0 1.0 0.00 0.00 0.00 89 1018.3
20200814010802 72 132 1.0 3.0 0.00 0.00 0.00 89 1018.5
20200814010303 72 132 1.0 2.0 0.00 0.00 0.00 89 1018.5
20200814005803 72 132 0.0 2.0 0.00 0.00 0.00 88 1018.4
20200814005302 73 132 2.0 3.0 0.00 0.00 0.00 88 1018.4
20200814004803 73 128 1.0 3.0 0.00 0.00 0.00 87 1018.4
20200814004302 73 25 1.0 3.0 0.00 0.00 0.00 86 1018.4
20200814003803 73 48 1.0 3.0 0.00 0.00 0.00 85 1018.4
20200814003304 74 23 1.0 2.0 0.00 0.00 0.00 84 1018.5
20200814002803 74 47 1.0 3.0 0.00 0.00 0.00 84 1018.4
20200814002303 75 128 1.0 3.0 0.00 0.00 0.00 84 1018.5
20200814001803 75 133 1.0 3.0 0.00 0.00 0.00 84 1018.3
20200814001303 75 130 2.0 5.0 0.00 0.00 0.00 84 1018.2
20200814000803 75 130 2.0 3.0 0.00 0.00 0.00 83 1018.1
20200814000302 76 140 1.0 3.0 0.00 0.00 0.00 82 1018.0
20200813235803 76 131 2.0 3.0 0.00 0.00 0.00 82 1017.9
20200813235303 77 135 1.0 3.0 0.00 0.00 0.00 82 1017.8
20200813234802 77 130 1.0 6.0 0.00 0.00 0.00 81 1017.7
20200813234303 78 127 1.0 3.0 0.00 0.00 0.00 82 1017.8
20200813233802 78 41 0.0 0.0 0.00 0.00 0.00 80 1017.6
20200813233303 78 41 0.0 0.0 0.00 0.00 0.00 79 1017.5
20200813232803 79 41 0.0 2.0 0.00 0.00 0.00 78 1017.5
20200813232303 79 44 0.0 1.0 0.00 0.00 0.00 78 1017.4
20200813231802 79 40 0.0 0.0 0.00 0.00 0.00 76 1017.2
20200813231302 79 21 0.0 0.0 0.00 0.00 0.00 76 1017.2
20200813230802 79 21 0.0 0.0 0.00 0.00 0.00 75 1017.1
20200813230303 79 21 0.0 0.0 0.00 0.00 0.00 75 1017.2
20200813225803 79 21 0.0 1.0 0.00 0.00 0.00 72 1017.5
20200813225303 80 21 1.0 2.0 0.00 0.00 0.00 72 1017.4
20200813224803 80 19 0.0 1.0 0.00 0.00 0.00 72 1017.5
20200813224303 80 19 0.0 1.0 0.00 0.00 0.00 71 1017.5
20200813223803 80 5 1.0 2.0 0.00 0.00 0.00 68 1017.2
20200813223303 81 5 1.0 2.0 0.00 0.02 0.00 70 1017.0
20200813222802 81 36 1.0 3.0 0.00 0.02 0.00 69 1017.0
20200813222303 81 17 1.0 2.0 0.00 0.02 0.00 70 1016.9
20200813221803 81 351 0.0 0.0 0.00 0.04 0.00 72 1016.9
20200813221303 80 351 0.0 1.0 0.00 0.04 0.00 70 1017.0
20200813220803 81 351 0.0 1.0 0.00 0.10 0.00 71 1017.0
20200813220303 81 3 1.0 2.0 0.00 0.14 0.00 71 1017.0
20200813215803 81 30 1.0 3.0 0.00 0.18 0.00 69 1016.9
20200813215303 81 355 0.0 2.0 0.00 0.20 0.00 71 1016.9
20200813214803 81 42 1.0 3.0 0.00 0.20 0.00 72 1016.9
20200813214303 81 311 0.0 2.0 0.00 0.20 0.00 75 1016.9
20200813213803 81 119 1.0 2.0 0.00 0.20 0.00 76 1016.8
20200813213303 80 121 0.0 1.0 0.00 0.20 0.00 76 1017.0
20200813212803 80 121 0.0 3.0 0.00 0.20 0.00 74 1016.9
20200813212304 80 174 1.0 3.0 0.00 0.20 0.00 74 1016.9
20200813211803 80 136 0.0 1.0 0.00 0.20 0.00 75 1016.9
20200813211303 80 101 1.0 3.0 0.00 0.20 0.00 76 1016.9
20200813210804 80 66 1.0 3.0 0.00 0.20 0.00 74 1016.9
20200813210303 79 252 0.0 0.0 0.00 0.20 0.00 76 1016.9
20200813205803 79 252 0.0 0.0 0.00 0.20 0.00 76 1016.8
20200813205303 79 252 0.0 0.0 0.00 0.20 0.00 75 1016.8
20200813204802 79 252 0.0 1.0 0.00 0.20 0.00 73 1016.8
20200813204303 79 252 1.0 2.0 0.00 0.20 0.00 76 1016.8
20200813203803 78 252 0.0 1.0 0.00 0.20 0.00 76 1017.0
20200813203303 78 252 0.0 1.0 0.00 0.20 0.00 75 1017.1
20200813202804 78 252 0.0 3.0 0.00 0.20 0.00 76 1017.2
20200813202303 77 254 0.0 2.0 0.00 0.20 0.00 76 1017.2
20200813201803 77 255 0.0 2.0 0.00 0.20 0.00 78 1017.2
20200813201303 77 255 0.0 5.0 0.00 0.20 0.00 79 1017.3